sensor_id;sensor_type;location;lat;lon;timestamp;pressure;altitude;pressure_sealevel;temperature;humidity
2036;BME280;23642;42.658;23.350;2023-04-06T00:01:08;51335.81;;;-146.31;81.20
2036;BME280;23642;42.658;23.350;2023-04-06T00:03:35;51302.81;;;-146.31;81.54
2036;BME280;23642;42.658;23.350;2023-04-06T00:06:01;51315.19;;;-146.31;81.43
2036;BME280;23642;42.658;23.350;2023-04-06T00:08:28;51300.75;;;-146.31;81.46
2036;BME280;23642;42.658;23.350;2023-04-06T00:10:55;51309.00;;;-146.31;81.10
2036;BME280;23642;42.658;23.350;2023-04-06T00:13:24;51329.63;;;-146.31;81.53
2036;BME280;23642;42.658;23.350;2023-04-06T00:15:50;51313.13;;;-146.31;82.53
2036;BME280;23642;42.658;23.350;2023-04-06T00:18:18;51311.06;;;-146.31;81.26
2036;BME280;23642;42.658;23.350;2023-04-06T00:20:44;51327.56;;;-146.31;81.38
2036;BME280;23642;42.658;23.350;2023-04-06T00:23:11;51317.25;;;-146.31;81.42
2036;BME280;23642;42.658;23.350;2023-04-06T00:25:38;51315.19;;;-146.31;81.41
2036;BME280;23642;42.658;23.350;2023-04-06T00:28:05;51337.88;;;-146.31;81.76
2036;BME280;23642;42.658;23.350;2023-04-06T00:30:33;51319.31;;;-146.31;81.41
2036;BME280;23642;42.658;23.350;2023-04-06T00:33:00;51319.31;;;-146.31;81.25
2036;BME280;23642;42.658;23.350;2023-04-06T00:35:27;51290.44;;;-146.31;81.90
2036;BME280;23642;42.658;23.350;2023-04-06T00:37:54;51323.44;;;-146.31;81.80
2036;BME280;23642;42.658;23.350;2023-04-06T00:40:21;51321.38;;;-146.31;81.71
2036;BME280;23642;42.658;23.350;2023-04-06T00:42:48;51298.69;;;-146.31;82.34
2036;BME280;23642;42.658;23.350;2023-04-06T00:45:15;51313.13;;;-146.31;82.08
2036;BME280;23642;42.658;23.350;2023-04-06T00:47:43;51313.13;;;-146.31;81.57
2036;BME280;23642;42.658;23.350;2023-04-06T00:50:09;51319.31;;;-146.31;81.60
2036;BME280;23642;42.658;23.350;2023-04-06T00:52:36;51306.94;;;-146.31;80.95
2036;BME280;23642;42.658;23.350;2023-04-06T00:55:04;51321.38;;;-146.31;81.33
2036;BME280;23642;42.658;23.350;2023-04-06T00:57:31;51319.31;;;-146.31;81.61
2036;BME280;23642;42.658;23.350;2023-04-06T00:59:58;51329.63;;;-146.31;81.78
2036;BME280;23642;42.658;23.350;2023-04-06T01:02:25;51346.13;;;-146.31;81.27
2036;BME280;23642;42.658;23.350;2023-04-06T01:04:53;51331.69;;;-146.31;81.04
2036;BME280;23642;42.658;23.350;2023-04-06T01:07:20;51335.81;;;-146.31;81.10
2036;BME280;23642;42.658;23.350;2023-04-06T01:09:47;51311.06;;;-146.31;80.76
2036;BME280;23642;42.658;23.350;2023-04-06T01:12:14;51339.94;;;-146.31;80.32
2036;BME280;23642;42.658;23.350;2023-04-06T01:14:40;51372.94;;;-146.31;80.62
2036;BME280;23642;42.658;23.350;2023-04-06T01:17:07;51327.56;;;-146.31;81.06
2036;BME280;23642;42.658;23.350;2023-04-06T01:19:34;51333.75;;;-146.31;81.04
2036;BME280;23642;42.658;23.350;2023-04-06T01:22:02;51346.13;;;-146.31;80.92
2036;BME280;23642;42.658;23.350;2023-04-06T01:24:30;51335.81;;;-146.31;81.32
2036;BME280;23642;42.658;23.350;2023-04-06T01:26:57;51315.19;;;-146.31;81.09
2036;BME280;23642;42.658;23.350;2023-04-06T01:29:24;51325.50;;;-146.31;81.29
2036;BME280;23642;42.658;23.350;2023-04-06T01:31:51;51329.63;;;-146.31;81.04
2036;BME280;23642;42.658;23.350;2023-04-06T01:34:20;51335.81;;;-146.31;80.65
2036;BME280;23642;42.658;23.350;2023-04-06T01:36:47;51348.19;;;-146.31;80.32
2036;BME280;23642;42.658;23.350;2023-04-06T01:39:14;51333.75;;;-146.31;80.87
2036;BME280;23642;42.658;23.350;2023-04-06T01:41:42;51327.56;;;-146.31;80.80
2036;BME280;23642;42.658;23.350;2023-04-06T01:44:10;51335.81;;;-146.31;80.42
2036;BME280;23642;42.658;23.350;2023-04-06T01:46:36;51294.56;;;-146.31;80.64
2036;BME280;23642;42.658;23.350;2023-04-06T01:49:03;51327.56;;;-146.31;80.22
2036;BME280;23642;42.658;23.350;2023-04-06T01:51:31;51352.31;;;-146.31;80.37
2036;BME280;23642;42.658;23.350;2023-04-06T01:54:01;51358.50;;;-146.31;80.43
2036;BME280;23642;42.658;23.350;2023-04-06T01:56:28;51377.06;;;-146.31;80.32
2036;BME280;23642;42.658;23.350;2023-04-06T01:58:56;51358.50;;;-146.31;79.81
2036;BME280;23642;42.658;23.350;2023-04-06T02:01:23;51358.50;;;-146.31;80.23
2036;BME280;23642;42.658;23.350;2023-04-06T02:03:50;51377.06;;;-146.31;79.60
2036;BME280;23642;42.658;23.350;2023-04-06T02:06:17;51356.44;;;-146.31;79.94
2036;BME280;23642;42.658;23.350;2023-04-06T02:08:43;51375.00;;;-146.31;79.84
2036;BME280;23642;42.658;23.350;2023-04-06T02:11:10;51387.38;;;-146.31;79.55
2036;BME280;23642;42.658;23.350;2023-04-06T02:13:37;51383.25;;;-146.31;80.21
2036;BME280;23642;42.658;23.350;2023-04-06T02:16:06;51381.19;;;-146.31;79.62
2036;BME280;23642;42.658;23.350;2023-04-06T02:18:33;51393.56;;;-146.31;80.20
2036;BME280;23642;42.658;23.350;2023-04-06T02:21:00;51368.81;;;-146.31;79.65
2036;BME280;23642;42.658;23.350;2023-04-06T02:23:27;51352.31;;;-146.31;79.82
2036;BME280;23642;42.658;23.350;2023-04-06T02:25:54;51403.88;;;-146.31;80.10
2036;BME280;23642;42.658;23.350;2023-04-06T02:28:20;51393.56;;;-146.31;80.17
2036;BME280;23642;42.658;23.350;2023-04-06T02:30:47;51401.81;;;-146.31;80.15
2036;BME280;23642;42.658;23.350;2023-04-06T02:33:16;51372.94;;;-146.31;79.79
2036;BME280;23642;42.658;23.350;2023-04-06T02:35:44;51360.56;;;-146.31;79.72
2036;BME280;23642;42.658;23.350;2023-04-06T02:38:11;51387.38;;;-146.31;80.26
2036;BME280;23642;42.658;23.350;2023-04-06T02:40:38;51377.06;;;-146.31;80.24
2036;BME280;23642;42.658;23.350;2023-04-06T02:43:05;51385.31;;;-146.31;80.14
2036;BME280;23642;42.658;23.350;2023-04-06T02:45:32;51391.50;;;-146.31;80.04
2036;BME280;23642;42.658;23.350;2023-04-06T02:47:59;51383.25;;;-146.31;80.35
2036;BME280;23642;42.658;23.350;2023-04-06T02:50:28;51397.69;;;-146.31;80.45
2036;BME280;23642;42.658;23.350;2023-04-06T02:52:54;51387.38;;;-146.31;80.55
2036;BME280;23642;42.658;23.350;2023-04-06T02:55:21;51410.06;;;-146.31;81.07
2036;BME280;23642;42.658;23.350;2023-04-06T02:57:48;51379.13;;;-146.31;80.74
2036;BME280;23642;42.658;23.350;2023-04-06T03:00:16;51368.81;;;-146.31;80.87
2036;BME280;23642;42.658;23.350;2023-04-06T03:02:42;51397.69;;;-146.31;80.97
2036;BME280;23642;42.658;23.350;2023-04-06T03:05:09;51385.31;;;-146.31;80.77
2036;BME280;23642;42.658;23.350;2023-04-06T03:07:37;51358.50;;;-146.31;80.66
2036;BME280;23642;42.658;23.350;2023-04-06T03:10:05;51393.56;;;-146.31;80.22
2036;BME280;23642;42.658;23.350;2023-04-06T03:12:32;51397.69;;;-146.31;80.59
2036;BME280;23642;42.658;23.350;2023-04-06T03:14:59;51383.25;;;-146.31;80.42
2036;BME280;23642;42.658;23.350;2023-04-06T03:17:27;51383.25;;;-146.31;80.23
2036;BME280;23642;42.658;23.350;2023-04-06T03:19:54;51372.94;;;-146.31;80.91
2036;BME280;23642;42.658;23.350;2023-04-06T03:22:21;51356.44;;;-146.31;80.57
2036;BME280;23642;42.658;23.350;2023-04-06T03:24:49;51368.81;;;-146.31;80.82
2036;BME280;23642;42.658;23.350;2023-04-06T03:27:16;51397.69;;;-146.31;81.00
2036;BME280;23642;42.658;23.350;2023-04-06T03:29:43;51391.50;;;-146.31;81.09
2036;BME280;23642;42.658;23.350;2023-04-06T03:32:10;51372.94;;;-146.31;80.92
2036;BME280;23642;42.658;23.350;2023-04-06T03:34:37;51356.44;;;-146.31;80.69
2036;BME280;23642;42.658;23.350;2023-04-06T03:37:04;51395.63;;;-146.31;80.50
2036;BME280;23642;42.658;23.350;2023-04-06T03:39:31;51391.50;;;-146.31;80.28
2036;BME280;23642;42.658;23.350;2023-04-06T03:41:59;51368.81;;;-146.31;80.12
2036;BME280;23642;42.658;23.350;2023-04-06T03:44:26;51424.53;;;-146.31;79.96
2036;BME280;23642;42.658;23.350;2023-04-06T03:46:53;51418.34;;;-146.31;79.92
2036;BME280;23642;42.658;23.350;2023-04-06T03:49:20;51401.81;;;-146.31;80.07
2036;BME280;23642;42.658;23.350;2023-04-06T03:51:47;51387.38;;;-146.31;79.70
2036;BME280;23642;42.658;23.350;2023-04-06T03:54:14;51387.38;;;-146.31;79.86
2036;BME280;23642;42.658;23.350;2023-04-06T03:56:41;51422.47;;;-146.31;79.41
2036;BME280;23642;42.658;23.350;2023-04-06T03:59:09;51416.28;;;-146.31;79.70
2036;BME280;23642;42.658;23.350;2023-04-06T04:01:35;51412.16;;;-146.31;79.50
2036;BME280;23642;42.658;23.350;2023-04-06T04:04:02;51443.09;;;-146.31;79.50
2036;BME280;23642;42.658;23.350;2023-04-06T04:06:29;51443.09;;;-146.31;78.62
2036;BME280;23642;42.658;23.350;2023-04-06T04:08:56;51441.03;;;-146.31;79.07
2036;BME280;23642;42.658;23.350;2023-04-06T04:11:23;51471.97;;;-146.31;79.20
2036;BME280;23642;42.658;23.350;2023-04-06T04:13:50;51447.22;;;-146.31;79.04
2036;BME280;23642;42.658;23.350;2023-04-06T04:16:20;51455.47;;;-146.31;78.82
2036;BME280;23642;42.658;23.350;2023-04-06T04:18:48;51467.84;;;-146.31;78.41
2036;BME280;23642;42.658;23.350;2023-04-06T04:21:15;51459.59;;;-146.31;78.90
2036;BME280;23642;42.658;23.350;2023-04-06T04:23:42;51486.41;;;-146.31;78.74
2036;BME280;23642;42.658;23.350;2023-04-06T04:26:09;51459.59;;;-146.31;78.66
2036;BME280;23642;42.658;23.350;2023-04-06T04:28:36;51467.84;;;-146.31;78.34
2036;BME280;23642;42.658;23.350;2023-04-06T04:31:03;51498.78;;;-146.31;78.67
2036;BME280;23642;42.658;23.350;2023-04-06T04:33:32;51480.22;;;-146.31;78.40
2036;BME280;23642;42.658;23.350;2023-04-06T04:35:59;51471.97;;;-146.31;78.47
2036;BME280;23642;42.658;23.350;2023-04-06T04:38:26;51486.41;;;-146.31;78.41
2036;BME280;23642;42.658;23.350;2023-04-06T04:40:53;51496.72;;;-146.31;78.03
2036;BME280;23642;42.658;23.350;2023-04-06T04:43:19;51500.84;;;-146.31;78.13
2036;BME280;23642;42.658;23.350;2023-04-06T04:45:46;51517.34;;;-146.31;78.35
2036;BME280;23642;42.658;23.350;2023-04-06T04:48:13;51490.53;;;-146.31;78.12
2036;BME280;23642;42.658;23.350;2023-04-06T04:50:42;51496.72;;;-146.31;78.23
2036;BME280;23642;42.658;23.350;2023-04-06T04:53:08;51500.84;;;-146.31;78.16
2036;BME280;23642;42.658;23.350;2023-04-06T04:55:35;51511.16;;;-146.31;78.16
2036;BME280;23642;42.658;23.350;2023-04-06T04:58:02;51531.78;;;-146.31;77.79
2036;BME280;23642;42.658;23.350;2023-04-06T05:00:29;51527.66;;;-146.31;77.85
2036;BME280;23642;42.658;23.350;2023-04-06T05:02:57;51523.53;;;-146.31;78.02
2036;BME280;23642;42.658;23.350;2023-04-06T05:05:23;51517.34;;;-146.31;77.97
2036;BME280;23642;42.658;23.350;2023-04-06T05:07:52;51504.97;;;-146.31;78.23
2036;BME280;23642;42.658;23.350;2023-04-06T05:10:19;51515.28;;;-146.31;78.45
2036;BME280;23642;42.658;23.350;2023-04-06T05:12:46;51529.72;;;-146.31;78.57
2036;BME280;23642;42.658;23.350;2023-04-06T05:15:17;51513.22;;;-146.31;77.85
2036;BME280;23642;42.658;23.350;2023-04-06T05:17:44;51484.34;;;-146.31;78.52
2036;BME280;23642;42.658;23.350;2023-04-06T05:20:11;51529.72;;;-146.31;78.50
2036;BME280;23642;42.658;23.350;2023-04-06T05:22:38;51509.09;;;-146.31;78.64
2036;BME280;23642;42.658;23.350;2023-04-06T05:25:07;51504.97;;;-146.31;78.58
2036;BME280;23642;42.658;23.350;2023-04-06T05:27:34;51492.59;;;-146.31;77.88
2036;BME280;23642;42.658;23.350;2023-04-06T05:30:01;51507.03;;;-146.31;77.92
2036;BME280;23642;42.658;23.350;2023-04-06T05:32:28;51515.28;;;-146.31;78.60
2036;BME280;23642;42.658;23.350;2023-04-06T05:34:55;51478.16;;;-146.31;78.98
2036;BME280;23642;42.658;23.350;2023-04-06T05:37:24;51500.84;;;-146.31;78.36
2036;BME280;23642;42.658;23.350;2023-04-06T05:39:51;51494.66;;;-146.31;78.75
2036;BME280;23642;42.658;23.350;2023-04-06T05:42:19;51531.78;;;-146.31;78.17
2036;BME280;23642;42.658;23.350;2023-04-06T05:44:45;51504.97;;;-146.31;78.44
2036;BME280;23642;42.658;23.350;2023-04-06T05:47:12;51488.47;;;-146.31;76.90
2036;BME280;23642;42.658;23.350;2023-04-06T05:49:41;51511.16;;;-146.31;77.08
2036;BME280;23642;42.658;23.350;2023-04-06T05:52:08;51515.28;;;-146.31;76.27
2036;BME280;23642;42.658;23.350;2023-04-06T05:54:35;51560.69;;;-146.31;75.92
2036;BME280;23642;42.658;23.350;2023-04-06T05:57:03;51538.00;;;-146.31;76.98
2036;BME280;23642;42.658;23.350;2023-04-06T05:59:31;51560.69;;;-146.31;76.75
2036;BME280;23642;42.658;23.350;2023-04-06T06:01:58;51575.13;;;-146.31;76.02
2036;BME280;23642;42.658;23.350;2023-04-06T06:04:26;51571.00;;;-146.31;76.51
2036;BME280;23642;42.658;23.350;2023-04-06T06:06:53;51601.94;;;-146.31;75.77
2036;BME280;23642;42.658;23.350;2023-04-06T06:09:20;51655.59;;;-146.31;77.15
2036;BME280;23642;42.658;23.350;2023-04-06T06:11:47;51573.06;;;-146.31;76.13
2036;BME280;23642;42.658;23.350;2023-04-06T06:14:16;51564.81;;;-146.31;76.28
2036;BME280;23642;42.658;23.350;2023-04-06T06:16:48;51554.50;;;-146.31;75.95
2036;BME280;23642;42.658;23.350;2023-04-06T06:19:15;51593.69;;;-146.31;75.08
2036;BME280;23642;42.658;23.350;2023-04-06T06:21:42;51630.81;;;-146.31;75.95
2036;BME280;23642;42.658;23.350;2023-04-06T06:24:11;51667.97;;;-146.31;76.18
2036;BME280;23642;42.658;23.350;2023-04-06T06:26:38;51653.53;;;-146.31;75.37
2036;BME280;23642;42.658;23.350;2023-04-06T06:29:05;51727.78;;;-146.31;75.10
2036;BME280;23642;42.658;23.350;2023-04-06T06:31:31;51645.28;;;-146.31;73.73
2036;BME280;23642;42.658;23.350;2023-04-06T06:34:00;51795.88;;;-146.31;73.68
2036;BME280;23642;42.658;23.350;2023-04-06T06:36:27;52101.25;;;-146.31;72.67
2036;BME280;23642;42.658;23.350;2023-04-06T06:38:55;52470.63;;;-146.31;71.70
2036;BME280;23642;42.658;23.350;2023-04-06T06:41:22;51927.94;;;-146.31;71.97
2036;BME280;23642;42.658;23.350;2023-04-06T06:43:49;51824.75;;;-146.31;71.63
2036;BME280;23642;42.658;23.350;2023-04-06T06:46:16;52307.59;;;-146.31;71.97
2036;BME280;23642;42.658;23.350;2023-04-06T06:48:43;51787.63;;;-146.31;71.29
2036;BME280;23642;42.658;23.350;2023-04-06T06:51:11;51905.22;;;-146.31;74.76
2036;BME280;23642;42.658;23.350;2023-04-06T06:53:38;51793.81;;;-146.31;73.60
2036;BME280;23642;42.658;23.350;2023-04-06T06:56:06;51639.06;;;-146.31;74.27
2036;BME280;23642;42.658;23.350;2023-04-06T06:58:32;51705.09;;;-146.31;75.90
2036;BME280;23642;42.658;23.350;2023-04-06T07:00:59;51690.66;;;-146.31;76.84
2036;BME280;23642;42.658;23.350;2023-04-06T07:03:27;51694.78;;;-146.31;77.16
2036;BME280;23642;42.658;23.350;2023-04-06T07:05:55;51624.63;;;-146.31;76.91
2036;BME280;23642;42.658;23.350;2023-04-06T07:08:23;51727.78;;;-146.31;76.50
2036;BME280;23642;42.658;23.350;2023-04-06T07:10:52;51740.16;;;-146.31;76.22
2036;BME280;23642;42.658;23.350;2023-04-06T07:13:21;51653.53;;;-146.31;76.02
2036;BME280;23642;42.658;23.350;2023-04-06T07:15:52;51637.00;;;-146.31;74.31
2036;BME280;23642;42.658;23.350;2023-04-06T07:18:20;51676.22;;;-146.31;75.41
2036;BME280;23642;42.658;23.350;2023-04-06T07:20:52;51731.91;;;-146.31;75.54
2036;BME280;23642;42.658;23.350;2023-04-06T07:23:19;51797.94;;;-146.31;74.24
2036;BME280;23642;42.658;23.350;2023-04-06T07:25:47;52305.53;;;-146.31;73.55
2036;BME280;23642;42.658;23.350;2023-04-06T07:28:16;51657.66;;;-146.31;72.20
2036;BME280;23642;42.658;23.350;2023-04-06T07:30:43;51707.16;;;-146.31;72.95
2036;BME280;23642;42.658;23.350;2023-04-06T07:33:10;51795.88;;;-146.31;74.03
2036;BME280;23642;42.658;23.350;2023-04-06T07:35:36;51975.38;;;-146.31;73.52
2036;BME280;23642;42.658;23.350;2023-04-06T07:38:03;52099.19;;;-146.31;73.05
2036;BME280;23642;42.658;23.350;2023-04-06T07:40:30;51884.59;;;-146.31;72.39
2036;BME280;23642;42.658;23.350;2023-04-06T07:43:00;51925.88;;;-146.31;72.00
2036;BME280;23642;42.658;23.350;2023-04-06T07:45:27;51868.09;;;-146.31;71.54
2036;BME280;23642;42.658;23.350;2023-04-06T07:47:54;51731.91;;;-146.31;72.21
2036;BME280;23642;42.658;23.350;2023-04-06T07:50:21;51777.31;;;-146.31;73.40
2036;BME280;23642;42.658;23.350;2023-04-06T07:52:48;51752.56;;;-146.31;74.87
2036;BME280;23642;42.658;23.350;2023-04-06T07:55:15;51740.16;;;-146.31;74.30
2036;BME280;23642;42.658;23.350;2023-04-06T07:57:44;51686.53;;;-146.31;75.33
2036;BME280;23642;42.658;23.350;2023-04-06T08:00:16;51709.22;;;-146.31;75.35
2036;BME280;23642;42.658;23.350;2023-04-06T08:02:43;51616.38;;;-146.31;75.48
2036;BME280;23642;42.658;23.350;2023-04-06T08:05:10;51626.69;;;-146.31;75.25
2036;BME280;23642;42.658;23.350;2023-04-06T08:07:37;51612.25;;;-146.31;73.79
2036;BME280;23642;42.658;23.350;2023-04-06T08:10:06;51667.97;;;-146.31;75.01
2036;BME280;23642;42.658;23.350;2023-04-06T08:12:33;51670.03;;;-146.31;74.86
2036;BME280;23642;42.658;23.350;2023-04-06T08:15:00;51639.06;;;-146.31;74.95
2036;BME280;23642;42.658;23.350;2023-04-06T08:17:29;51705.09;;;-146.31;74.42
2036;BME280;23642;42.658;23.350;2023-04-06T08:19:56;51694.78;;;-146.31;74.00
2036;BME280;23642;42.658;23.350;2023-04-06T08:22:23;51698.91;;;-146.31;73.99
2036;BME280;23642;42.658;23.350;2023-04-06T08:24:51;51665.91;;;-146.31;73.96
2036;BME280;23642;42.658;23.350;2023-04-06T08:27:18;51694.78;;;-146.31;73.88
2036;BME280;23642;42.658;23.350;2023-04-06T08:29:44;51754.63;;;-146.31;73.72
2036;BME280;23642;42.658;23.350;2023-04-06T08:32:11;51698.91;;;-146.31;72.94
2036;BME280;23642;42.658;23.350;2023-04-06T08:34:40;51868.09;;;-146.31;71.80
2036;BME280;23642;42.658;23.350;2023-04-06T08:37:06;51752.56;;;-146.31;71.09
2036;BME280;23642;42.658;23.350;2023-04-06T08:39:33;51779.38;;;-146.31;72.02
2036;BME280;23642;42.658;23.350;2023-04-06T08:42:01;51804.13;;;-146.31;72.20
2036;BME280;23642;42.658;23.350;2023-04-06T08:44:29;51863.97;;;-146.31;69.33
2036;BME280;23642;42.658;23.350;2023-04-06T08:46:56;51925.88;;;-146.31;70.17
2036;BME280;23642;42.658;23.350;2023-04-06T08:49:23;51919.69;;;-146.31;69.20
2036;BME280;23642;42.658;23.350;2023-04-06T08:51:52;51969.19;;;-146.31;70.18
2036;BME280;23642;42.658;23.350;2023-04-06T08:54:19;51901.09;;;-146.31;69.76
2036;BME280;23642;42.658;23.350;2023-04-06T08:56:46;51913.47;;;-146.31;69.07
2036;BME280;23642;42.658;23.350;2023-04-06T08:59:15;51880.47;;;-146.31;67.69
2036;BME280;23642;42.658;23.350;2023-04-06T09:01:43;51940.31;;;-146.31;67.90
2036;BME280;23642;42.658;23.350;2023-04-06T09:04:11;51942.38;;;-146.31;68.01
2036;BME280;23642;42.658;23.350;2023-04-06T09:06:39;51936.19;;;-146.31;68.10
2036;BME280;23642;42.658;23.350;2023-04-06T09:09:07;51989.81;;;-146.31;68.86
2036;BME280;23642;42.658;23.350;2023-04-06T09:11:45;51963.00;;;-146.31;69.82
2036;BME280;23642;42.658;23.350;2023-04-06T09:14:12;51954.75;;;-146.31;69.85
2036;BME280;23642;42.658;23.350;2023-04-06T09:16:40;51909.34;;;-146.31;68.98
2036;BME280;23642;42.658;23.350;2023-04-06T09:19:07;51909.34;;;-146.31;68.13
2036;BME280;23642;42.658;23.350;2023-04-06T09:22:13;51903.16;;;-146.31;67.93
2036;BME280;23642;42.658;23.350;2023-04-06T09:24:45;51956.81;;;-146.31;67.95
2036;BME280;23642;42.658;23.350;2023-04-06T09:27:13;52016.66;;;-146.31;67.60
2036;BME280;23642;42.658;23.350;2023-04-06T09:29:40;51958.88;;;-146.31;68.80
2036;BME280;23642;42.658;23.350;2023-04-06T09:32:08;51921.75;;;-146.31;68.85
2036;BME280;23642;42.658;23.350;2023-04-06T09:34:38;51954.75;;;-146.31;68.59
2036;BME280;23642;42.658;23.350;2023-04-06T09:37:15;51948.56;;;-146.31;67.83
2036;BME280;23642;42.658;23.350;2023-04-06T09:39:46;52080.63;;;-146.31;67.35
2036;BME280;23642;42.658;23.350;2023-04-06T09:42:23;52214.75;;;-146.31;65.33
2036;BME280;23642;42.658;23.350;2023-04-06T09:44:50;52299.34;;;-146.31;62.50
2036;BME280;23642;42.658;23.350;2023-04-06T09:47:18;52140.44;;;-146.31;59.40
2036;BME280;23642;42.658;23.350;2023-04-06T09:49:47;52276.66;;;-146.31;60.25
2036;BME280;23642;42.658;23.350;2023-04-06T09:52:16;52408.72;;;-146.31;59.45
2036;BME280;23642;42.658;23.350;2023-04-06T09:54:47;52501.56;;;-146.31;59.33
2036;BME280;23642;42.658;23.350;2023-04-06T09:57:21;52483.00;;;-146.31;57.91
2036;BME280;23642;42.658;23.350;2023-04-06T10:00:02;52546.97;;;-146.31;56.71
2036;BME280;23642;42.658;23.350;2023-04-06T10:02:39;52759.53;;;-146.31;56.62
2036;BME280;23642;42.658;23.350;2023-04-06T10:05:11;52714.13;;;-146.31;55.41
2036;BME280;23642;42.658;23.350;2023-04-06T10:07:40;52943.22;;;-146.31;55.96
2036;BME280;23642;42.658;23.350;2023-04-06T10:10:10;52986.56;;;-146.31;54.99
2036;BME280;23642;42.658;23.350;2023-04-06T10:12:38;53036.09;;;-146.31;55.29
2036;BME280;23642;42.658;23.350;2023-04-06T10:15:07;53091.81;;;-146.31;54.68
2036;BME280;23642;42.658;23.350;2023-04-06T10:17:35;53162.00;;;-146.31;53.71
2036;BME280;23642;42.658;23.350;2023-04-06T10:20:05;53102.16;;;-146.31;52.76
2036;BME280;23642;42.658;23.350;2023-04-06T10:22:38;53135.19;;;-146.31;51.99
2036;BME280;23642;42.658;23.350;2023-04-06T10:25:09;53170.25;;;-146.31;51.78
2036;BME280;23642;42.658;23.350;2023-04-06T10:27:36;53065.00;;;-146.31;51.31
2036;BME280;23642;42.658;23.350;2023-04-06T10:30:05;53205.34;;;-146.31;51.18
2036;BME280;23642;42.658;23.350;2023-04-06T10:32:36;52759.53;;;-146.31;50.74
2036;BME280;23642;42.658;23.350;2023-04-06T10:35:07;52710.00;;;-146.31;51.57
2036;BME280;23642;42.658;23.350;2023-04-06T10:37:49;52724.47;;;-146.31;52.08
2036;BME280;23642;42.658;23.350;2023-04-06T10:40:22;52780.19;;;-146.31;51.84
2036;BME280;23642;42.658;23.350;2023-04-06T10:42:49;52968.00;;;-146.31;52.70
2036;BME280;23642;42.658;23.350;2023-04-06T10:45:20;52968.00;;;-146.31;52.93
2036;BME280;23642;42.658;23.350;2023-04-06T10:47:48;52848.28;;;-146.31;51.74
2036;BME280;23642;42.658;23.350;2023-04-06T10:50:17;52827.66;;;-146.31;52.52
2036;BME280;23642;42.658;23.350;2023-04-06T10:52:45;52881.31;;;-146.31;51.76
2036;BME280;23642;42.658;23.350;2023-04-06T10:55:13;52848.28;;;-146.31;51.83
2036;BME280;23642;42.658;23.350;2023-04-06T10:57:42;52823.53;;;-146.31;52.11
2036;BME280;23642;42.658;23.350;2023-04-06T11:00:11;52885.44;;;-146.31;52.08
2036;BME280;23642;42.658;23.350;2023-04-06T11:02:38;52906.06;;;-146.31;52.46
2036;BME280;23642;42.658;23.350;2023-04-06T11:05:06;53052.63;;;-146.31;52.58
2036;BME280;23642;42.658;23.350;2023-04-06T11:07:33;53273.47;;;-146.31;52.01
2036;BME280;23642;42.658;23.350;2023-04-06T11:10:00;53172.31;;;-146.31;51.56
2036;BME280;23642;42.658;23.350;2023-04-06T11:12:34;53091.81;;;-146.31;51.04
2036;BME280;23642;42.658;23.350;2023-04-06T11:15:03;53345.72;;;-146.31;51.20
2036;BME280;23642;42.658;23.350;2023-04-06T11:17:34;53333.31;;;-146.31;51.52
2036;BME280;23642;42.658;23.350;2023-04-06T11:20:03;53413.84;;;-146.31;50.33
2036;BME280;23642;42.658;23.350;2023-04-06T11:22:31;53279.66;;;-146.31;49.77
2036;BME280;23642;42.658;23.350;2023-04-06T11:25:05;53364.28;;;-146.31;49.12
2036;BME280;23642;42.658;23.350;2023-04-06T11:27:32;53475.75;;;-146.31;48.81
2036;BME280;23642;42.658;23.350;2023-04-06T11:30:00;53523.22;;;-146.31;50.46
2036;BME280;23642;42.658;23.350;2023-04-06T11:32:28;53283.78;;;-146.31;50.44
2036;BME280;23642;42.658;23.350;2023-04-06T11:34:58;53432.41;;;-146.31;49.83
2036;BME280;23642;42.658;23.350;2023-04-06T11:37:26;53358.09;;;-146.31;49.71
2036;BME280;23642;42.658;23.350;2023-04-06T11:39:54;53475.75;;;-146.31;49.28
2036;BME280;23642;42.658;23.350;2023-04-06T11:42:22;53349.84;;;-146.31;48.54
2036;BME280;23642;42.658;23.350;2023-04-06T11:44:51;53248.69;;;-146.31;48.29
2036;BME280;23642;42.658;23.350;2023-04-06T11:47:20;53444.78;;;-146.31;49.66
2036;BME280;23642;42.658;23.350;2023-04-06T11:50:05;53327.13;;;-146.31;48.94
2036;BME280;23642;42.658;23.350;2023-04-06T11:52:33;53329.19;;;-146.31;49.93
2036;BME280;23642;42.658;23.350;2023-04-06T11:55:12;53213.59;;;-146.31;49.42
2036;BME280;23642;42.658;23.350;2023-04-06T11:57:42;53211.53;;;-146.31;49.56
2036;BME280;23642;42.658;23.350;2023-04-06T12:00:10;53300.31;;;-146.31;49.62
2036;BME280;23642;42.658;23.350;2023-04-06T12:02:37;53232.19;;;-146.31;50.63
2036;BME280;23642;42.658;23.350;2023-04-06T12:05:07;53209.47;;;-146.31;50.22
2036;BME280;23642;42.658;23.350;2023-04-06T12:07:34;53226.00;;;-146.31;49.94
2036;BME280;23642;42.658;23.350;2023-04-06T12:10:02;53300.31;;;-146.31;50.96
2036;BME280;23642;42.658;23.350;2023-04-06T12:12:29;53304.44;;;-146.31;51.07
2036;BME280;23642;42.658;23.350;2023-04-06T12:14:59;53314.75;;;-146.31;51.99
2036;BME280;23642;42.658;23.350;2023-04-06T12:17:26;53252.81;;;-146.31;52.87
2036;BME280;23642;42.658;23.350;2023-04-06T12:19:53;53259.03;;;-146.31;52.01
2036;BME280;23642;42.658;23.350;2023-04-06T12:22:22;53304.44;;;-146.31;52.16
2036;BME280;23642;42.658;23.350;2023-04-06T12:24:49;53242.50;;;-146.31;52.41
2036;BME280;23642;42.658;23.350;2023-04-06T12:27:15;53289.97;;;-146.31;52.08
2036;BME280;23642;42.658;23.350;2023-04-06T12:29:42;53310.63;;;-146.31;53.16
2036;BME280;23642;42.658;23.350;2023-04-06T12:32:12;53221.88;;;-146.31;52.98
2036;BME280;23642;42.658;23.350;2023-04-06T12:34:39;53271.41;;;-146.31;52.57
2036;BME280;23642;42.658;23.350;2023-04-06T12:37:06;53277.59;;;-146.31;52.29
2036;BME280;23642;42.658;23.350;2023-04-06T12:39:34;53269.34;;;-146.31;52.47
2036;BME280;23642;42.658;23.350;2023-04-06T12:42:04;53298.25;;;-146.31;51.92
2036;BME280;23642;42.658;23.350;2023-04-06T12:44:31;53308.56;;;-146.31;51.91